sensor_id;sensor_type;location;lat;lon;timestamp;P1;durP1;ratioP1;P2;durP2;ratioP2
68993;SDS011;56054;50.968;5.816;2023-04-15T00:00:29;7.57;;;2.73;;
68993;SDS011;56054;50.968;5.816;2023-04-15T00:03:29;7.40;;;3.20;;
68993;SDS011;56054;50.968;5.816;2023-04-15T00:06:29;6.43;;;3.10;;
68993;SDS011;56054;50.968;5.816;2023-04-15T00:09:30;10.47;;;2.90;;
68993;SDS011;56054;50.968;5.816;2023-04-15T00:12:30;6.97;;;3.30;;
68993;SDS011;56054;50.968;5.816;2023-04-15T00:15:33;7.73;;;2.90;;
68993;SDS011;56054;50.968;5.816;2023-04-15T00:18:34;8.47;;;2.87;;
68993;SDS011;56054;50.968;5.816;2023-04-15T00:21:34;10.17;;;3.03;;
68993;SDS011;56054;50.968;5.816;2023-04-15T00:24:35;9.17;;;3.20;;
68993;SDS011;56054;50.968;5.816;2023-04-15T00:27:35;6.33;;;2.83;;
68993;SDS011;56054;50.968;5.816;2023-04-15T00:30:35;4.90;;;2.70;;
68993;SDS011;56054;50.968;5.816;2023-04-15T00:33:38;8.77;;;2.83;;
68993;SDS011;56054;50.968;5.816;2023-04-15T00:36:39;8.13;;;2.80;;
68993;SDS011;56054;50.968;5.816;2023-04-15T00:39:40;6.10;;;2.83;;
68993;SDS011;56054;50.968;5.816;2023-04-15T00:42:40;9.20;;;2.60;;
68993;SDS011;56054;50.968;5.816;2023-04-15T00:45:41;6.27;;;2.97;;
68993;SDS011;56054;50.968;5.816;2023-04-15T00:48:41;4.90;;;2.33;;
68993;SDS011;56054;50.968;5.816;2023-04-15T00:51:43;8.77;;;2.80;;
68993;SDS011;56054;50.968;5.816;2023-04-15T00:54:44;10.07;;;2.87;;
68993;SDS011;56054;50.968;5.816;2023-04-15T00:57:44;7.67;;;2.80;;
68993;SDS011;56054;50.968;5.816;2023-04-15T01:00:45;7.40;;;2.33;;
68993;SDS011;56054;50.968;5.816;2023-04-15T01:03:47;5.43;;;2.37;;
68993;SDS011;56054;50.968;5.816;2023-04-15T01:06:49;6.30;;;2.57;;
68993;SDS011;56054;50.968;5.816;2023-04-15T01:09:49;7.30;;;2.60;;
68993;SDS011;56054;50.968;5.816;2023-04-15T01:12:50;5.47;;;2.47;;
68993;SDS011;56054;50.968;5.816;2023-04-15T01:15:51;6.20;;;1.93;;
68993;SDS011;56054;50.968;5.816;2023-04-15T01:18:52;4.57;;;2.17;;
68993;SDS011;56054;50.968;5.816;2023-04-15T01:21:53;6.17;;;2.20;;
68993;SDS011;56054;50.968;5.816;2023-04-15T01:24:54;7.93;;;2.20;;
68993;SDS011;56054;50.968;5.816;2023-04-15T01:28:04;7.93;;;2.40;;
68993;SDS011;56054;50.968;5.816;2023-04-15T01:31:09;5.17;;;2.83;;
68993;SDS011;56054;50.968;5.816;2023-04-15T01:34:11;8.07;;;2.93;;
68993;SDS011;56054;50.968;5.816;2023-04-15T01:37:12;9.40;;;3.03;;
68993;SDS011;56054;50.968;5.816;2023-04-15T01:40:13;6.17;;;2.40;;
68993;SDS011;56054;50.968;5.816;2023-04-15T01:43:13;10.27;;;2.60;;
68993;SDS011;56054;50.968;5.816;2023-04-15T01:46:16;7.10;;;3.03;;
68993;SDS011;56054;50.968;5.816;2023-04-15T01:49:16;7.37;;;2.50;;
68993;SDS011;56054;50.968;5.816;2023-04-15T01:52:16;6.90;;;2.90;;
68993;SDS011;56054;50.968;5.816;2023-04-15T01:55:17;5.57;;;2.30;;
68993;SDS011;56054;50.968;5.816;2023-04-15T01:58:19;8.10;;;2.33;;
68993;SDS011;56054;50.968;5.816;2023-04-15T02:01:19;6.27;;;2.17;;
68993;SDS011;56054;50.968;5.816;2023-04-15T02:04:19;6.07;;;2.07;;
68993;SDS011;56054;50.968;5.816;2023-04-15T02:07:20;6.27;;;2.73;;
68993;SDS011;56054;50.968;5.816;2023-04-15T02:10:20;6.60;;;2.30;;
68993;SDS011;56054;50.968;5.816;2023-04-15T02:13:21;10.77;;;2.67;;
68993;SDS011;56054;50.968;5.816;2023-04-15T02:16:22;10.40;;;2.60;;
68993;SDS011;56054;50.968;5.816;2023-04-15T02:19:23;7.33;;;2.57;;
68993;SDS011;56054;50.968;5.816;2023-04-15T02:22:23;8.70;;;2.67;;
68993;SDS011;56054;50.968;5.816;2023-04-15T02:25:23;9.03;;;3.30;;
68993;SDS011;56054;50.968;5.816;2023-04-15T02:28:24;4.50;;;2.20;;
68993;SDS011;56054;50.968;5.816;2023-04-15T02:31:24;5.67;;;2.53;;
68993;SDS011;56054;50.968;5.816;2023-04-15T02:34:25;8.43;;;2.60;;
68993;SDS011;56054;50.968;5.816;2023-04-15T02:37:26;6.77;;;2.37;;
68993;SDS011;56054;50.968;5.816;2023-04-15T02:40:26;7.07;;;2.33;;
68993;SDS011;56054;50.968;5.816;2023-04-15T02:43:27;5.30;;;2.60;;
68993;SDS011;56054;50.968;5.816;2023-04-15T02:46:27;5.37;;;2.60;;
68993;SDS011;56054;50.968;5.816;2023-04-15T02:49:28;5.63;;;2.50;;
68993;SDS011;56054;50.968;5.816;2023-04-15T02:52:30;6.13;;;2.50;;
68993;SDS011;56054;50.968;5.816;2023-04-15T02:55:31;8.10;;;2.97;;
68993;SDS011;56054;50.968;5.816;2023-04-15T02:58:31;7.77;;;2.57;;
68993;SDS011;56054;50.968;5.816;2023-04-15T03:01:32;5.50;;;2.37;;
68993;SDS011;56054;50.968;5.816;2023-04-15T03:04:32;10.97;;;2.80;;
68993;SDS011;56054;50.968;5.816;2023-04-15T03:07:33;6.30;;;2.27;;
68993;SDS011;56054;50.968;5.816;2023-04-15T03:10:35;8.13;;;2.60;;
68993;SDS011;56054;50.968;5.816;2023-04-15T03:13:35;8.77;;;2.23;;
68993;SDS011;56054;50.968;5.816;2023-04-15T03:16:43;6.63;;;2.10;;
68993;SDS011;56054;50.968;5.816;2023-04-15T03:19:47;5.43;;;2.20;;
68993;SDS011;56054;50.968;5.816;2023-04-15T03:22:47;10.00;;;2.43;;
68993;SDS011;56054;50.968;5.816;2023-04-15T03:25:48;8.87;;;2.47;;
68993;SDS011;56054;50.968;5.816;2023-04-15T03:28:48;8.43;;;2.80;;
68993;SDS011;56054;50.968;5.816;2023-04-15T03:31:52;5.73;;;2.43;;
68993;SDS011;56054;50.968;5.816;2023-04-15T03:34:52;4.93;;;2.47;;
68993;SDS011;56054;50.968;5.816;2023-04-15T03:37:53;4.97;;;2.27;;
68993;SDS011;56054;50.968;5.816;2023-04-15T03:40:53;6.77;;;2.30;;
68993;SDS011;56054;50.968;5.816;2023-04-15T03:43:54;7.10;;;2.47;;
68993;SDS011;56054;50.968;5.816;2023-04-15T03:46:54;6.27;;;2.43;;
68993;SDS011;56054;50.968;5.816;2023-04-15T03:49:54;8.97;;;2.83;;
68993;SDS011;56054;50.968;5.816;2023-04-15T03:52:55;7.57;;;2.57;;
68993;SDS011;56054;50.968;5.816;2023-04-15T03:55:55;7.67;;;2.07;;
68993;SDS011;56054;50.968;5.816;2023-04-15T03:58:55;6.73;;;2.60;;
68993;SDS011;56054;50.968;5.816;2023-04-15T04:01:56;7.83;;;2.87;;
68993;SDS011;56054;50.968;5.816;2023-04-15T04:04:56;5.23;;;2.20;;
68993;SDS011;56054;50.968;5.816;2023-04-15T04:07:57;7.40;;;2.40;;
68993;SDS011;56054;50.968;5.816;2023-04-15T04:10:57;12.47;;;2.40;;
68993;SDS011;56054;50.968;5.816;2023-04-15T04:13:58;7.97;;;2.40;;
68993;SDS011;56054;50.968;5.816;2023-04-15T04:16:58;7.90;;;2.60;;
68993;SDS011;56054;50.968;5.816;2023-04-15T04:19:58;11.57;;;2.43;;
68993;SDS011;56054;50.968;5.816;2023-04-15T04:22:59;5.27;;;2.20;;
68993;SDS011;56054;50.968;5.816;2023-04-15T04:25:59;7.83;;;2.70;;
68993;SDS011;56054;50.968;5.816;2023-04-15T04:28:59;6.60;;;2.23;;
68993;SDS011;56054;50.968;5.816;2023-04-15T04:32:00;5.23;;;2.03;;
68993;SDS011;56054;50.968;5.816;2023-04-15T04:35:00;4.93;;;2.50;;
68993;SDS011;56054;50.968;5.816;2023-04-15T04:38:01;8.90;;;2.90;;
68993;SDS011;56054;50.968;5.816;2023-04-15T04:41:01;4.30;;;2.10;;
68993;SDS011;56054;50.968;5.816;2023-04-15T04:44:02;10.50;;;2.90;;
68993;SDS011;56054;50.968;5.816;2023-04-15T04:47:02;11.40;;;3.50;;
68993;SDS011;56054;50.968;5.816;2023-04-15T04:50:02;5.60;;;2.67;;
68993;SDS011;56054;50.968;5.816;2023-04-15T04:53:06;6.03;;;2.80;;
68993;SDS011;56054;50.968;5.816;2023-04-15T04:56:07;6.27;;;2.63;;
68993;SDS011;56054;50.968;5.816;2023-04-15T04:59:07;6.67;;;2.87;;
68993;SDS011;56054;50.968;5.816;2023-04-15T05:02:08;10.20;;;2.80;;
68993;SDS011;56054;50.968;5.816;2023-04-15T05:05:08;8.97;;;3.20;;
68993;SDS011;56054;50.968;5.816;2023-04-15T05:08:09;7.07;;;2.77;;
68993;SDS011;56054;50.968;5.816;2023-04-15T05:11:10;9.63;;;2.80;;
68993;SDS011;56054;50.968;5.816;2023-04-15T05:14:10;9.93;;;3.10;;
68993;SDS011;56054;50.968;5.816;2023-04-15T05:17:10;10.50;;;3.40;;
68993;SDS011;56054;50.968;5.816;2023-04-15T05:20:11;11.17;;;3.10;;
68993;SDS011;56054;50.968;5.816;2023-04-15T05:23:12;6.77;;;3.40;;
68993;SDS011;56054;50.968;5.816;2023-04-15T05:26:12;12.23;;;2.87;;
68993;SDS011;56054;50.968;5.816;2023-04-15T05:29:13;12.07;;;3.30;;
68993;SDS011;56054;50.968;5.816;2023-04-15T05:32:13;9.80;;;3.27;;
68993;SDS011;56054;50.968;5.816;2023-04-15T05:35:13;7.03;;;3.00;;
68993;SDS011;56054;50.968;5.816;2023-04-15T05:38:14;8.70;;;2.90;;
68993;SDS011;56054;50.968;5.816;2023-04-15T05:41:14;9.47;;;3.07;;
68993;SDS011;56054;50.968;5.816;2023-04-15T05:44:15;7.30;;;3.20;;
68993;SDS011;56054;50.968;5.816;2023-04-15T05:47:15;9.27;;;3.20;;
68993;SDS011;56054;50.968;5.816;2023-04-15T05:50:16;10.87;;;3.50;;
68993;SDS011;56054;50.968;5.816;2023-04-15T05:53:16;9.20;;;3.43;;
68993;SDS011;56054;50.968;5.816;2023-04-15T05:56:16;11.30;;;3.73;;
68993;SDS011;56054;50.968;5.816;2023-04-15T05:59:17;9.77;;;3.27;;
68993;SDS011;56054;50.968;5.816;2023-04-15T06:02:17;8.53;;;3.57;;
68993;SDS011;56054;50.968;5.816;2023-04-15T06:05:18;7.73;;;4.13;;
68993;SDS011;56054;50.968;5.816;2023-04-15T06:08:18;12.17;;;3.87;;
68993;SDS011;56054;50.968;5.816;2023-04-15T06:11:19;8.63;;;4.03;;
68993;SDS011;56054;50.968;5.816;2023-04-15T06:14:19;12.80;;;4.23;;
68993;SDS011;56054;50.968;5.816;2023-04-15T06:17:20;7.73;;;4.37;;
68993;SDS011;56054;50.968;5.816;2023-04-15T06:20:20;11.10;;;4.40;;
68993;SDS011;56054;50.968;5.816;2023-04-15T06:23:20;11.33;;;4.43;;
68993;SDS011;56054;50.968;5.816;2023-04-15T06:26:21;10.50;;;4.77;;
68993;SDS011;56054;50.968;5.816;2023-04-15T06:29:21;8.27;;;4.50;;
68993;SDS011;56054;50.968;5.816;2023-04-15T06:32:22;16.87;;;4.47;;
68993;SDS011;56054;50.968;5.816;2023-04-15T06:35:22;9.43;;;4.60;;
68993;SDS011;56054;50.968;5.816;2023-04-15T06:38:22;10.83;;;4.23;;
68993;SDS011;56054;50.968;5.816;2023-04-15T06:41:23;15.17;;;5.03;;
68993;SDS011;56054;50.968;5.816;2023-04-15T06:44:23;6.67;;;4.30;;
68993;SDS011;56054;50.968;5.816;2023-04-15T06:47:27;11.77;;;4.87;;
68993;SDS011;56054;50.968;5.816;2023-04-15T06:50:27;11.53;;;5.17;;
68993;SDS011;56054;50.968;5.816;2023-04-15T06:53:27;12.80;;;5.13;;
68993;SDS011;56054;50.968;5.816;2023-04-15T06:56:28;11.37;;;5.20;;
68993;SDS011;56054;50.968;5.816;2023-04-15T06:59:28;10.43;;;5.00;;
68993;SDS011;56054;50.968;5.816;2023-04-15T07:02:29;14.40;;;5.77;;
68993;SDS011;56054;50.968;5.816;2023-04-15T07:05:29;13.50;;;6.13;;
68993;SDS011;56054;50.968;5.816;2023-04-15T07:08:30;22.10;;;5.90;;
68993;SDS011;56054;50.968;5.816;2023-04-15T07:11:31;13.70;;;5.97;;
68993;SDS011;56054;50.968;5.816;2023-04-15T07:14:31;15.47;;;6.77;;
68993;SDS011;56054;50.968;5.816;2023-04-15T07:17:32;13.27;;;6.43;;
68993;SDS011;56054;50.968;5.816;2023-04-15T07:20:32;17.33;;;6.43;;
68993;SDS011;56054;50.968;5.816;2023-04-15T07:23:33;16.83;;;6.90;;
68993;SDS011;56054;50.968;5.816;2023-04-15T07:26:35;12.43;;;5.73;;
68993;SDS011;56054;50.968;5.816;2023-04-15T07:29:36;12.13;;;6.20;;
68993;SDS011;56054;50.968;5.816;2023-04-15T07:32:36;10.87;;;6.70;;
68993;SDS011;56054;50.968;5.816;2023-04-15T07:35:37;14.40;;;6.77;;
68993;SDS011;56054;50.968;5.816;2023-04-15T07:42:00;10.07;;;6.73;;
68993;SDS011;56054;50.968;5.816;2023-04-15T07:45:01;16.27;;;7.33;;
68993;SDS011;56054;50.968;5.816;2023-04-15T07:48:02;13.23;;;6.47;;
68993;SDS011;56054;50.968;5.816;2023-04-15T07:51:02;15.00;;;7.47;;
68993;SDS011;56054;50.968;5.816;2023-04-15T07:54:03;14.50;;;7.07;;
68993;SDS011;56054;50.968;5.816;2023-04-15T07:57:03;12.87;;;8.27;;
68993;SDS011;56054;50.968;5.816;2023-04-15T08:00:04;15.03;;;7.97;;
68993;SDS011;56054;50.968;5.816;2023-04-15T08:03:12;18.90;;;8.40;;
68993;SDS011;56054;50.968;5.816;2023-04-15T08:06:13;13.80;;;9.00;;
68993;SDS011;56054;50.968;5.816;2023-04-15T08:09:15;14.77;;;9.00;;
68993;SDS011;56054;50.968;5.816;2023-04-15T08:12:15;17.30;;;9.07;;
68993;SDS011;56054;50.968;5.816;2023-04-15T08:15:16;14.83;;;9.10;;
68993;SDS011;56054;50.968;5.816;2023-04-15T08:18:16;19.90;;;11.07;;
68993;SDS011;56054;50.968;5.816;2023-04-15T08:21:17;16.80;;;9.70;;
68993;SDS011;56054;50.968;5.816;2023-04-15T08:24:18;18.00;;;10.43;;
68993;SDS011;56054;50.968;5.816;2023-04-15T08:27:18;16.07;;;8.80;;
68993;SDS011;56054;50.968;5.816;2023-04-15T08:30:20;19.83;;;9.33;;
68993;SDS011;56054;50.968;5.816;2023-04-15T08:33:20;15.90;;;9.60;;
68993;SDS011;56054;50.968;5.816;2023-04-15T08:36:21;12.50;;;7.73;;
68993;SDS011;56054;50.968;5.816;2023-04-15T08:39:21;14.00;;;8.50;;
68993;SDS011;56054;50.968;5.816;2023-04-15T08:42:22;13.13;;;8.13;;
68993;SDS011;56054;50.968;5.816;2023-04-15T08:45:29;13.33;;;7.73;;
68993;SDS011;56054;50.968;5.816;2023-04-15T08:48:33;14.20;;;6.63;;
68993;SDS011;56054;50.968;5.816;2023-04-15T08:51:38;10.50;;;5.80;;
68993;SDS011;56054;50.968;5.816;2023-04-15T08:54:40;9.50;;;5.87;;
68993;SDS011;56054;50.968;5.816;2023-04-15T08:57:41;8.50;;;5.87;;
68993;SDS011;56054;50.968;5.816;2023-04-15T09:00:41;9.10;;;6.17;;
68993;SDS011;56054;50.968;5.816;2023-04-15T09:03:41;8.57;;;5.60;;
68993;SDS011;56054;50.968;5.816;2023-04-15T09:06:43;10.37;;;5.83;;
68993;SDS011;56054;50.968;5.816;2023-04-15T09:09:44;9.23;;;5.53;;
68993;SDS011;56054;50.968;5.816;2023-04-15T09:12:44;8.37;;;4.70;;
68993;SDS011;56054;50.968;5.816;2023-04-15T09:15:44;9.77;;;4.60;;
68993;SDS011;56054;50.968;5.816;2023-04-15T09:18:45;6.87;;;4.63;;
68993;SDS011;56054;50.968;5.816;2023-04-15T09:21:46;8.13;;;4.40;;
68993;SDS011;56054;50.968;5.816;2023-04-15T09:24:47;8.50;;;4.57;;
68993;SDS011;56054;50.968;5.816;2023-04-15T09:27:48;9.10;;;4.33;;
68993;SDS011;56054;50.968;5.816;2023-04-15T09:31:00;10.67;;;4.60;;
68993;SDS011;56054;50.968;5.816;2023-04-15T09:34:01;8.73;;;4.67;;
68993;SDS011;56054;50.968;5.816;2023-04-15T09:37:02;7.40;;;3.90;;
68993;SDS011;56054;50.968;5.816;2023-04-15T09:40:02;6.83;;;4.13;;
68993;SDS011;56054;50.968;5.816;2023-04-15T09:43:04;9.10;;;4.63;;
68993;SDS011;56054;50.968;5.816;2023-04-15T09:46:06;7.33;;;4.07;;
68993;SDS011;56054;50.968;5.816;2023-04-15T09:49:07;8.37;;;4.33;;
68993;SDS011;56054;50.968;5.816;2023-04-15T09:52:08;6.97;;;3.47;;
68993;SDS011;56054;50.968;5.816;2023-04-15T09:55:14;10.13;;;3.50;;
68993;SDS011;56054;50.968;5.816;2023-04-15T09:58:18;4.93;;;3.20;;
68993;SDS011;56054;50.968;5.816;2023-04-15T10:01:22;6.33;;;2.90;;
68993;SDS011;56054;50.968;5.816;2023-04-15T10:04:23;4.83;;;3.20;;
68993;SDS011;56054;50.968;5.816;2023-04-15T10:07:25;5.07;;;3.47;;
68993;SDS011;56054;50.968;5.816;2023-04-15T10:10:28;8.10;;;3.50;;
68993;SDS011;56054;50.968;5.816;2023-04-15T10:13:29;5.43;;;2.90;;
68993;SDS011;56054;50.968;5.816;2023-04-15T10:16:31;5.63;;;3.10;;
68993;SDS011;56054;50.968;5.816;2023-04-15T10:19:33;11.00;;;3.40;;
68993;SDS011;56054;50.968;5.816;2023-04-15T10:22:36;8.97;;;3.57;;
68993;SDS011;56054;50.968;5.816;2023-04-15T10:25:37;9.30;;;4.57;;
68993;SDS011;56054;50.968;5.816;2023-04-15T10:28:38;5.27;;;3.13;;
68993;SDS011;56054;50.968;5.816;2023-04-15T10:31:38;6.70;;;3.00;;
68993;SDS011;56054;50.968;5.816;2023-04-15T10:34:40;4.57;;;2.73;;
68993;SDS011;56054;50.968;5.816;2023-04-15T10:37:41;4.00;;;2.40;;
68993;SDS011;56054;50.968;5.816;2023-04-15T10:40:41;3.00;;;1.85;;
68993;SDS011;56054;50.968;5.816;2023-04-15T10:43:49;6.63;;;2.67;;
68993;SDS011;56054;50.968;5.816;2023-04-15T10:46:54;6.57;;;2.77;;
68993;SDS011;56054;50.968;5.816;2023-04-15T10:49:58;3.67;;;2.17;;
68993;SDS011;56054;50.968;5.816;2023-04-15T10:53:01;3.77;;;1.73;;
68993;SDS011;56054;50.968;5.816;2023-04-15T10:56:05;2.03;;;1.30;;
68993;SDS011;56054;50.968;5.816;2023-04-15T10:59:09;3.13;;;1.37;;
68993;SDS011;56054;50.968;5.816;2023-04-15T11:02:11;2.97;;;1.40;;
68993;SDS011;56054;50.968;5.816;2023-04-15T11:05:14;2.33;;;1.38;;
68993;SDS011;56054;50.968;5.816;2023-04-15T11:08:16;1.58;;;1.10;;
68993;SDS011;56054;50.968;5.816;2023-04-15T11:11:16;3.20;;;1.15;;
68993;SDS011;56054;50.968;5.816;2023-04-15T11:14:17;2.80;;;1.53;;
68993;SDS011;56054;50.968;5.816;2023-04-15T11:17:25;2.83;;;1.63;;
68993;SDS011;56054;50.968;5.816;2023-04-15T11:20:26;4.07;;;1.83;;
68993;SDS011;56054;50.968;5.816;2023-04-15T11:26:36;4.00;;;2.08;;
68993;SDS011;56054;50.968;5.816;2023-04-15T11:29:37;5.82;;;1.55;;
68993;SDS011;56054;50.968;5.816;2023-04-15T11:32:40;2.45;;;1.67;;
68993;SDS011;56054;50.968;5.816;2023-04-15T11:35:41;2.95;;;1.48;;
68993;SDS011;56054;50.968;5.816;2023-04-15T11:38:42;3.25;;;1.70;;
68993;SDS011;56054;50.968;5.816;2023-04-15T11:52:58;2.75;;;1.80;;
68993;SDS011;56054;50.968;5.816;2023-04-15T11:55:59;3.55;;;2.17;;
68993;SDS011;56054;50.968;5.816;2023-04-15T11:59:00;9.13;;;2.17;;
68993;SDS011;56054;50.968;5.816;2023-04-15T12:02:09;4.53;;;2.97;;
68993;SDS011;56054;50.968;5.816;2023-04-15T12:05:11;3.83;;;2.30;;
68993;SDS011;56054;50.968;5.816;2023-04-15T12:08:11;3.92;;;2.67;;
68993;SDS011;56054;50.968;5.816;2023-04-15T12:11:11;5.90;;;2.80;;
68993;SDS011;56054;50.968;5.816;2023-04-15T12:17:15;5.30;;;2.50;;
68993;SDS011;56054;50.968;5.816;2023-04-15T12:20:25;5.18;;;2.88;;
68993;SDS011;56054;50.968;5.816;2023-04-15T12:27:49;3.95;;;2.47;;
68993;SDS011;56054;50.968;5.816;2023-04-15T12:30:52;4.47;;;2.00;;
68993;SDS011;56054;50.968;5.816;2023-04-15T12:33:56;3.60;;;2.60;;
68993;SDS011;56054;50.968;5.816;2023-04-15T12:36:57;4.28;;;2.00;;
68993;SDS011;56054;50.968;5.816;2023-04-15T12:40:00;6.40;;;2.47;;
68993;SDS011;56054;50.968;5.816;2023-04-15T12:43:00;3.35;;;2.30;;
68993;SDS011;56054;50.968;5.816;2023-04-15T12:46:02;3.92;;;2.22;;
68993;SDS011;56054;50.968;5.816;2023-04-15T12:49:02;3.25;;;2.42;;
68993;SDS011;56054;50.968;5.816;2023-04-15T12:52:03;4.20;;;2.50;;
68993;SDS011;56054;50.968;5.816;2023-04-15T12:55:04;4.03;;;2.20;;
68993;SDS011;56054;50.968;5.816;2023-04-15T12:58:04;3.70;;;2.63;;
68993;SDS011;56054;50.968;5.816;2023-04-15T13:01:05;5.10;;;2.10;;
68993;SDS011;56054;50.968;5.816;2023-04-15T13:04:05;3.10;;;2.20;;
68993;SDS011;56054;50.968;5.816;2023-04-15T13:07:06;4.05;;;2.60;;
68993;SDS011;56054;50.968;5.816;2023-04-15T13:10:07;3.33;;;2.38;;
68993;SDS011;56054;50.968;5.816;2023-04-15T13:13:08;4.78;;;2.42;;
68993;SDS011;56054;50.968;5.816;2023-04-15T13:16:09;5.90;;;2.22;;
68993;SDS011;56054;50.968;5.816;2023-04-15T13:19:10;3.17;;;1.95;;
68993;SDS011;56054;50.968;5.816;2023-04-15T13:22:11;3.20;;;1.98;;
68993;SDS011;56054;50.968;5.816;2023-04-15T13:25:12;4.75;;;2.58;;
68993;SDS011;56054;50.968;5.816;2023-04-15T13:28:12;3.92;;;2.60;;
68993;SDS011;56054;50.968;5.816;2023-04-15T13:31:12;3.33;;;2.20;;
68993;SDS011;56054;50.968;5.816;2023-04-15T13:34:13;2.50;;;2.00;;
68993;SDS011;56054;50.968;5.816;2023-04-15T13:37:13;4.03;;;2.42;;
68993;SDS011;56054;50.968;5.816;2023-04-15T13:40:14;4.03;;;2.67;;
68993;SDS011;56054;50.968;5.816;2023-04-15T13:43:14;6.45;;;3.20;;
68993;SDS011;56054;50.968;5.816;2023-04-15T13:46:15;4.95;;;2.40;;
68993;SDS011;56054;50.968;5.816;2023-04-15T13:49:15;5.63;;;3.08;;
68993;SDS011;56054;50.968;5.816;2023-04-15T13:52:18;3.75;;;2.42;;
68993;SDS011;56054;50.968;5.816;2023-04-15T13:55:19;3.90;;;2.10;;
68993;SDS011;56054;50.968;5.816;2023-04-15T13:58:19;5.45;;;2.50;;
68993;SDS011;56054;50.968;5.816;2023-04-15T14:01:20;6.03;;;2.53;;
68993;SDS011;56054;50.968;5.816;2023-04-15T14:04:20;3.50;;;2.10;;
68993;SDS011;56054;50.968;5.816;2023-04-15T14:07:23;4.13;;;2.13;;
68993;SDS011;56054;50.968;5.816;2023-04-15T14:10:23;4.70;;;2.50;;
68993;SDS011;56054;50.968;5.816;2023-04-15T14:13:24;6.72;;;2.15;;
68993;SDS011;56054;50.968;5.816;2023-04-15T14:16:34;4.90;;;2.00;;
68993;SDS011;56054;50.968;5.816;2023-04-15T14:19:37;4.75;;;1.73;;
68993;SDS011;56054;50.968;5.816;2023-04-15T14:22:38;2.25;;;1.70;;
68993;SDS011;56054;50.968;5.816;2023-04-15T14:25:39;9.55;;;4.95;;
68993;SDS011;56054;50.968;5.816;2023-04-15T14:28:39;1.95;;;1.55;;
68993;SDS011;56054;50.968;5.816;2023-04-15T14:31:42;3.97;;;1.75;;
68993;SDS011;56054;50.968;5.816;2023-04-15T14:34:42;1.90;;;1.40;;
68993;SDS011;56054;50.968;5.816;2023-04-15T14:37:42;3.25;;;1.60;;
68993;SDS011;56054;50.968;5.816;2023-04-15T14:40:43;2.47;;;1.52;;
68993;SDS011;56054;50.968;5.816;2023-04-15T14:43:43;3.72;;;1.67;;
68993;SDS011;56054;50.968;5.816;2023-04-15T14:46:44;6.00;;;1.80;;
68993;SDS011;56054;50.968;5.816;2023-04-15T14:49:44;2.40;;;1.40;;
68993;SDS011;56054;50.968;5.816;2023-04-15T14:52:44;7.32;;;1.80;;
68993;SDS011;56054;50.968;5.816;2023-04-15T14:55:45;3.70;;;1.60;;
68993;SDS011;56054;50.968;5.816;2023-04-15T14:58:45;4.57;;;1.88;;
68993;SDS011;56054;50.968;5.816;2023-04-15T15:01:46;3.80;;;1.95;;
68993;SDS011;56054;50.968;5.816;2023-04-15T15:04:47;2.38;;;1.17;;
68993;SDS011;56054;50.968;5.816;2023-04-15T15:07:47;3.28;;;1.40;;
68993;SDS011;56054;50.968;5.816;2023-04-15T15:10:47;9.68;;;4.13;;
68993;SDS011;56054;50.968;5.816;2023-04-15T15:13:48;2.30;;;1.30;;
68993;SDS011;56054;50.968;5.816;2023-04-15T15:16:48;1.77;;;1.27;;
68993;SDS011;56054;50.968;5.816;2023-04-15T15:19:49;5.55;;;1.70;;
68993;SDS011;56054;50.968;5.816;2023-04-15T15:22:49;2.63;;;1.35;;
68993;SDS011;56054;50.968;5.816;2023-04-15T15:25:50;2.95;;;1.77;;
68993;SDS011;56054;50.968;5.816;2023-04-15T15:28:50;2.13;;;1.30;;
68993;SDS011;56054;50.968;5.816;2023-04-15T15:31:51;11.02;;;1.90;;
68993;SDS011;56054;50.968;5.816;2023-04-15T15:34:51;3.10;;;1.60;;
68993;SDS011;56054;50.968;5.816;2023-04-15T15:37:52;5.75;;;1.60;;
68993;SDS011;56054;50.968;5.816;2023-04-15T15:40:52;2.63;;;1.45;;
68993;SDS011;56054;50.968;5.816;2023-04-15T15:43:53;5.10;;;1.75;;
68993;SDS011;56054;50.968;5.816;2023-04-15T15:46:53;5.43;;;1.70;;
68993;SDS011;56054;50.968;5.816;2023-04-15T15:49:54;2.42;;;1.55;;
68993;SDS011;56054;50.968;5.816;2023-04-15T15:52:54;6.75;;;1.88;;
68993;SDS011;56054;50.968;5.816;2023-04-15T15:55:54;1.88;;;1.60;;
68993;SDS011;56054;50.968;5.816;2023-04-15T15:58:55;4.07;;;1.50;;
68993;SDS011;56054;50.968;5.816;2023-04-15T16:01:55;9.95;;;1.50;;
68993;SDS011;56054;50.968;5.816;2023-04-15T16:04:57;3.08;;;1.05;;
68993;SDS011;56054;50.968;5.816;2023-04-15T16:07:58;1.70;;;1.10;;
68993;SDS011;56054;50.968;5.816;2023-04-15T16:10:58;3.42;;;0.80;;
68993;SDS011;56054;50.968;5.816;2023-04-15T16:17:25;2.25;;;0.80;;
68993;SDS011;56054;50.968;5.816;2023-04-15T16:20:25;3.72;;;0.73;;
68993;SDS011;56054;50.968;5.816;2023-04-15T16:23:26;2.58;;;1.00;;
68993;SDS011;56054;50.968;5.816;2023-04-15T16:26:26;5.20;;;1.13;;
68993;SDS011;56054;50.968;5.816;2023-04-15T16:29:27;1.02;;;0.75;;
68993;SDS011;56054;50.968;5.816;2023-04-15T16:32:27;1.63;;;0.93;;
68993;SDS011;56054;50.968;5.816;2023-04-15T16:35:29;1.98;;;0.75;;
68993;SDS011;56054;50.968;5.816;2023-04-15T16:38:29;3.58;;;1.05;;
68993;SDS011;56054;50.968;5.816;2023-04-15T16:41:30;1.80;;;0.80;;
68993;SDS011;56054;50.968;5.816;2023-04-15T16:44:30;5.95;;;1.00;;
68993;SDS011;56054;50.968;5.816;2023-04-15T16:47:31;1.35;;;0.70;;
68993;SDS011;56054;50.968;5.816;2023-04-15T16:50:31;3.07;;;0.87;;
68993;SDS011;56054;50.968;5.816;2023-04-15T16:53:32;2.90;;;0.90;;
68993;SDS011;56054;50.968;5.816;2023-04-15T16:56:32;2.30;;;0.97;;
68993;SDS011;56054;50.968;5.816;2023-04-15T16:59:32;4.50;;;1.20;;
68993;SDS011;56054;50.968;5.816;2023-04-15T17:02:33;1.70;;;1.02;;
68993;SDS011;56054;50.968;5.816;2023-04-15T17:05:33;3.17;;;1.17;;
68993;SDS011;56054;50.968;5.816;2023-04-15T17:08:34;2.97;;;1.10;;
68993;SDS011;56054;50.968;5.816;2023-04-15T17:32:22;3.57;;;1.13;;
68993;SDS011;56054;50.968;5.816;2023-04-15T17:35:24;4.90;;;1.77;;
68993;SDS011;56054;50.968;5.816;2023-04-15T17:38:24;4.47;;;1.50;;
68993;SDS011;56054;50.968;5.816;2023-04-15T17:41:25;3.40;;;1.10;;
68993;SDS011;56054;50.968;5.816;2023-04-15T17:44:25;4.03;;;1.50;;
68993;SDS011;56054;50.968;5.816;2023-04-15T17:47:26;4.17;;;1.47;;
68993;SDS011;56054;50.968;5.816;2023-04-15T17:50:26;1.07;;;0.80;;
68993;SDS011;56054;50.968;5.816;2023-04-15T17:53:27;3.53;;;1.00;;
68993;SDS011;56054;50.968;5.816;2023-04-15T17:56:27;4.10;;;1.30;;
68993;SDS011;56054;50.968;5.816;2023-04-15T17:59:28;5.67;;;1.23;;
68993;SDS011;56054;50.968;5.816;2023-04-15T18:02:28;3.00;;;1.50;;
68993;SDS011;56054;50.968;5.816;2023-04-15T18:05:29;2.23;;;1.20;;
68993;SDS011;56054;50.968;5.816;2023-04-15T18:18:08;4.17;;;1.40;;
68993;SDS011;56054;50.968;5.816;2023-04-15T18:21:12;4.13;;;1.40;;
68993;SDS011;56054;50.968;5.816;2023-04-15T18:24:14;2.27;;;1.30;;
68993;SDS011;56054;50.968;5.816;2023-04-15T18:27:15;4.47;;;1.30;;
68993;SDS011;56054;50.968;5.816;2023-04-15T18:30:18;7.67;;;1.17;;
68993;SDS011;56054;50.968;5.816;2023-04-15T18:33:18;3.97;;;1.30;;
68993;SDS011;56054;50.968;5.816;2023-04-15T18:36:19;3.50;;;0.87;;
68993;SDS011;56054;50.968;5.816;2023-04-15T18:39:19;7.80;;;1.17;;
68993;SDS011;56054;50.968;5.816;2023-04-15T18:42:20;2.20;;;1.00;;
68993;SDS011;56054;50.968;5.816;2023-04-15T18:45:20;3.10;;;0.90;;
68993;SDS011;56054;50.968;5.816;2023-04-15T18:48:21;12.23;;;1.37;;
68993;SDS011;56054;50.968;5.816;2023-04-15T18:51:21;4.67;;;0.87;;
68993;SDS011;56054;50.968;5.816;2023-04-15T18:54:22;3.87;;;0.90;;
68993;SDS011;56054;50.968;5.816;2023-04-15T18:57:22;1.87;;;0.70;;
68993;SDS011;56054;50.968;5.816;2023-04-15T19:00:22;5.27;;;1.00;;
68993;SDS011;56054;50.968;5.816;2023-04-15T19:03:23;4.53;;;1.00;;
68993;SDS011;56054;50.968;5.816;2023-04-15T19:06:23;4.87;;;1.00;;